createdAt,value
2019-03-27T05:39:48.213Z,8.50
2019-03-27T05:42:21.218Z,9.65
2019-03-27T05:44:53.429Z,8.40
2019-03-27T05:47:25.538Z,9.00
2019-03-27T05:49:57.745Z,8.60
2019-03-27T05:52:29.685Z,9.63
2019-03-27T05:55:01.603Z,8.23
2019-03-27T05:57:33.837Z,9.80
2019-03-27T06:00:06.298Z,9.83
2019-03-27T06:02:38.107Z,9.03
2019-03-27T06:05:10.241Z,8.20
2019-03-27T06:07:42.348Z,7.53
2019-03-27T06:10:16.371Z,8.88
2019-03-27T06:12:48.008Z,8.73
2019-03-27T06:15:20.529Z,8.90
2019-03-27T06:17:52.331Z,9.65
2019-03-27T06:20:24.290Z,8.28
2019-03-27T06:22:57.631Z,9.80
2019-03-27T06:25:29.569Z,8.88
2019-03-27T06:28:02.182Z,8.13
2019-03-27T06:30:34.072Z,8.70
2019-03-27T06:33:07.622Z,11.40
2019-03-27T06:35:39.982Z,11.95
2019-03-27T06:38:11.946Z,10.08
2019-03-27T06:40:44.031Z,10.50
2019-03-27T06:43:16.110Z,10.53
2019-03-27T06:45:48.208Z,10.60
2019-03-27T06:48:26.133Z,9.38
2019-03-27T06:50:53.780Z,10.85
2019-03-27T06:53:25.688Z,9.98
2019-03-27T06:55:57.607Z,10.80
2019-03-27T06:58:29.566Z,10.25
2019-03-27T07:01:01.487Z,10.03
2019-03-27T07:03:33.666Z,9.58
2019-03-27T07:06:05.782Z,8.63
2019-03-27T07:08:37.935Z,8.55
2019-03-27T07:11:10.018Z,7.78
2019-03-27T07:13:42.220Z,7.55
2019-03-27T07:16:14.420Z,7.42
2019-03-27T07:18:46.916Z,7.47
2019-03-27T07:21:18.989Z,6.95
2019-03-27T07:23:50.870Z,6.90
2019-03-27T07:26:23.219Z,7.65
2019-03-27T07:28:55.187Z,6.78
2019-03-27T07:31:28.380Z,7.15
2019-03-27T07:34:00.351Z,6.85
2019-03-27T07:36:32.298Z,6.40
2019-03-27T07:39:11.153Z,6.95
2019-03-27T07:41:39.391Z,7.40
2019-03-27T07:44:11.442Z,6.28
2019-03-27T07:46:43.721Z,6.83
2019-03-27T07:49:17.206Z,6.95
2019-03-27T07:51:49.213Z,6.35
2019-03-27T07:54:21.347Z,6.33
2019-03-27T07:56:53.487Z,5.53
2019-03-27T07:59:25.334Z,5.75
2019-03-27T08:01:55.819Z,6.12
2019-03-27T08:04:27.534Z,5.20
2019-03-27T08:06:59.963Z,5.28
2019-03-27T08:09:32.044Z,6.12
2019-03-27T08:12:04.587Z,4.22
2019-03-27T08:14:36.868Z,3.98
2019-03-27T08:17:09.305Z,4.40
2019-03-27T08:19:41.345Z,3.60
2019-03-27T08:22:13.387Z,2.65
2019-03-27T08:24:45.491Z,2.83
2019-03-27T08:27:17.503Z,2.77
2019-03-27T08:29:49.764Z,3.02
2019-03-27T08:32:21.899Z,3.00
2019-03-27T08:34:54.213Z,2.58
2019-03-27T08:37:26.056Z,3.37
2019-03-27T08:39:58.181Z,3.77
2019-03-27T08:42:30.222Z,3.65
2019-03-27T08:45:03.815Z,3.30
2019-03-27T08:47:36.276Z,2.90
2019-03-27T08:50:09.939Z,3.40
2019-03-27T08:52:42.920Z,3.35
2019-03-27T08:55:15.381Z,3.02
2019-03-27T08:57:47.583Z,2.95
2019-03-27T09:00:24.292Z,2.90
2019-03-27T09:02:56.245Z,2.58
2019-03-27T09:05:28.126Z,3.50
2019-03-27T09:08:00.442Z,2.33
2019-03-27T09:10:32.526Z,3.65
2019-03-27T09:13:04.924Z,3.22
2019-03-27T09:15:37.200Z,4.20
2019-03-27T09:18:09.301Z,2.67
2019-03-27T09:20:41.294Z,2.70
2019-03-27T09:23:14.253Z,3.65
2019-03-27T09:25:46.224Z,3.45
2019-03-27T09:28:18.148Z,3.55
2019-03-27T09:30:50.137Z,4.03
2019-03-27T09:33:22.136Z,2.87
2019-03-27T09:35:54.259Z,3.45
2019-03-27T09:38:26.298Z,3.10
2019-03-27T09:40:58.353Z,2.90
2019-03-27T09:43:30.474Z,4.00
2019-03-27T09:46:02.367Z,2.37
2019-03-27T09:48:34.316Z,2.47
2019-03-27T09:51:06.258Z,2.98
2019-03-27T09:53:38.486Z,2.30
2019-03-27T09:56:19.051Z,2.37
2019-03-27T09:58:44.182Z,1.72
2019-03-27T10:01:16.003Z,2.50
2019-03-27T10:03:48.059Z,2.90
2019-03-27T10:06:20.130Z,2.12
2019-03-27T10:08:52.261Z,2.58
2019-03-27T10:11:24.178Z,1.12
2019-03-27T10:13:56.345Z,1.17
2019-03-27T10:16:28.424Z,1.60
2019-03-27T10:19:00.404Z,1.30
2019-03-27T10:21:32.455Z,1.77
2019-03-27T10:24:04.672Z,1.90
2019-03-27T10:26:36.627Z,1.62
2019-03-27T10:29:08.498Z,1.25
2019-03-27T10:31:40.407Z,1.27
2019-03-27T10:34:12.538Z,1.20
2019-03-27T10:36:45.318Z,1.65
2019-03-27T10:39:17.422Z,1.52
2019-03-27T10:41:49.551Z,2.02
2019-03-27T10:44:21.566Z,1.70
2019-03-27T10:46:53.749Z,1.32
2019-03-27T10:49:25.722Z,1.95
2019-03-27T10:51:57.825Z,1.62
2019-03-27T10:54:29.952Z,1.55
2019-03-27T10:57:02.244Z,1.60
2019-03-27T10:59:34.661Z,1.55
2019-03-27T11:02:07.714Z,1.57
2019-03-27T11:04:39.680Z,1.50
2019-03-27T11:07:11.642Z,2.20
2019-03-27T11:09:43.694Z,2.02
2019-03-27T11:12:15.890Z,1.50
2019-03-27T11:14:47.916Z,1.90
2019-03-27T11:17:19.940Z,2.00
2019-03-27T11:19:51.791Z,1.85
2019-03-27T11:22:23.636Z,2.72
2019-03-27T11:24:55.635Z,1.90
2019-03-27T11:27:27.593Z,1.92
2019-03-27T11:29:59.889Z,1.72
2019-03-27T11:32:31.952Z,1.67
2019-03-27T11:35:04.561Z,1.60
2019-03-27T11:37:37.809Z,1.60
2019-03-27T11:40:10.391Z,1.90
2019-03-27T11:42:42.475Z,2.25
2019-03-27T11:45:14.843Z,2.05
2019-03-27T11:47:46.882Z,1.85
2019-03-27T11:50:19.137Z,1.90
2019-03-27T11:52:51.152Z,1.72
2019-03-27T11:55:23.215Z,1.50
2019-03-27T11:57:55.196Z,1.50
2019-03-27T12:00:27.147Z,1.80
2019-03-27T12:02:59.360Z,1.65
2019-03-27T12:05:31.744Z,1.45
2019-03-27T12:08:04.976Z,1.80
2019-03-27T12:10:36.805Z,2.10
2019-03-27T12:13:09.706Z,1.57
2019-03-27T12:15:43.915Z,1.98
2019-03-27T12:18:17.125Z,1.20
2019-03-27T12:20:58.849Z,1.80
2019-03-27T12:23:23.262Z,1.60
2019-03-27T12:25:55.592Z,1.67
2019-03-27T12:28:28.613Z,1.47
2019-03-27T12:31:01.138Z,1.37
2019-03-27T12:33:33.265Z,1.47
2019-03-27T12:36:05.356Z,2.02
2019-03-27T12:38:37.402Z,1.52
2019-03-27T12:41:09.506Z,1.57
2019-03-27T12:43:41.635Z,1.60
2019-03-27T12:46:13.665Z,1.62
2019-03-27T12:48:45.905Z,1.85
2019-03-27T12:51:18.152Z,1.80
2019-03-27T12:53:50.124Z,1.67
2019-03-27T12:56:22.148Z,1.22
2019-03-27T12:58:54.347Z,1.52
2019-03-27T13:01:26.538Z,1.10
2019-03-27T13:03:58.663Z,1.35
2019-03-27T13:06:30.902Z,1.30
2019-03-27T13:09:03.574Z,1.25
2019-03-27T13:11:36.863Z,1.17
2019-03-27T13:14:09.323Z,1.17
2019-03-27T13:16:42.707Z,1.42
2019-03-27T13:19:14.903Z,2.40
2019-03-27T13:21:47.060Z,1.90
2019-03-27T13:24:19.009Z,1.20
2019-03-27T13:26:51.213Z,1.60
2019-03-27T13:29:23.402Z,1.27
2019-03-27T13:31:55.613Z,0.98
2019-03-27T13:34:27.636Z,1.05
2019-03-27T13:36:59.950Z,1.07
2019-03-27T13:39:31.821Z,1.75
2019-03-27T13:42:03.997Z,1.07
2019-03-27T13:44:37.483Z,1.35
2019-03-27T13:47:10.176Z,0.85
2019-03-27T13:49:42.567Z,1.27
2019-03-27T13:52:14.513Z,1.40
2019-03-27T13:54:46.609Z,1.15
2019-03-27T13:57:18.614Z,1.30
2019-03-27T13:59:51.065Z,1.40
2019-03-27T14:02:22.942Z,1.60
2019-03-27T14:04:54.998Z,1.77
2019-03-27T14:07:27.238Z,1.50
2019-03-27T14:09:59.323Z,1.45
2019-03-27T14:12:31.442Z,1.80
2019-03-27T14:15:03.648Z,1.27
2019-03-27T14:17:35.495Z,2.12
2019-03-27T14:20:08.546Z,1.60
2019-03-27T14:22:40.699Z,1.82
2019-03-27T14:25:13.142Z,1.55
2019-03-27T14:27:46.098Z,1.27
2019-03-27T14:30:38.893Z,1.45
2019-03-27T14:33:11.135Z,1.67
2019-03-27T14:35:43.145Z,3.42
2019-03-27T14:38:15.096Z,3.27
2019-03-27T14:40:47.105Z,2.50
2019-03-27T14:43:19.161Z,1.98
2019-03-27T14:45:51.828Z,2.00
2019-03-27T14:48:23.861Z,1.87
2019-03-27T14:50:57.148Z,2.40
2019-03-27T14:53:29.025Z,3.58
2019-03-27T14:56:00.857Z,2.33
2019-03-27T14:58:33.450Z,2.33
2019-03-27T15:01:05.969Z,2.33
2019-03-27T15:03:39.222Z,2.70
2019-03-27T15:06:12.117Z,2.35
2019-03-27T15:08:44.343Z,2.58
2019-03-27T15:11:16.377Z,2.27
2019-03-27T15:13:48.811Z,2.83
2019-03-27T15:16:20.865Z,2.92
2019-03-27T15:18:53.032Z,2.95
2019-03-27T15:21:25.222Z,2.95
2019-03-27T15:23:57.321Z,3.02
2019-03-27T15:26:30.823Z,2.40
2019-03-27T15:29:02.994Z,2.72
2019-03-27T15:31:34.979Z,2.55
2019-03-27T15:34:06.979Z,3.10
2019-03-27T15:36:39.100Z,5.00
2019-03-27T15:39:12.237Z,3.40
2019-03-27T15:41:44.634Z,2.87
2019-03-27T15:44:17.650Z,2.70
2019-03-27T15:46:49.551Z,2.72
2019-03-27T15:49:21.463Z,2.35
2019-03-27T15:51:53.633Z,2.65
2019-03-27T15:54:25.974Z,3.30
2019-03-27T15:56:58.316Z,3.20
2019-03-27T15:59:30.384Z,3.40
2019-03-27T16:02:02.823Z,2.95
2019-03-27T16:04:35.051Z,3.37
2019-03-27T16:07:07.526Z,3.20
2019-03-27T16:09:39.944Z,3.15
2019-03-27T16:12:12.229Z,4.17
2019-03-27T16:14:44.452Z,4.05
2019-03-27T16:17:16.579Z,4.25
2019-03-27T16:19:48.814Z,3.15
2019-03-27T16:22:21.148Z,3.50
2019-03-27T16:24:53.035Z,3.75
2019-03-27T16:27:25.476Z,4.22
2019-03-27T16:29:58.628Z,3.77
2019-03-27T16:32:30.506Z,4.50
2019-03-27T16:35:02.655Z,4.80
2019-03-27T16:37:34.731Z,4.22
2019-03-27T16:40:07.515Z,3.92
2019-03-27T16:42:41.347Z,4.45
2019-03-27T16:45:13.491Z,4.05
2019-03-27T16:47:45.470Z,7.30
2019-03-27T16:50:18.198Z,8.10
2019-03-27T16:53:02.994Z,5.90
2019-03-27T16:55:24.507Z,4.80
2019-03-27T16:57:56.854Z,4.50
2019-03-27T17:00:29.281Z,3.77
2019-03-27T17:03:01.479Z,3.85
2019-03-27T17:05:33.660Z,4.35
2019-03-27T17:08:05.850Z,3.98
2019-03-27T17:10:38.265Z,4.17
2019-03-27T17:13:10.382Z,4.50
2019-03-27T17:15:42.755Z,5.30
2019-03-27T17:18:14.954Z,4.25
2019-03-27T17:20:47.037Z,4.70
2019-03-27T18:16:10.829Z,4.08
2019-03-27T18:18:42.880Z,4.70
2019-03-27T18:21:15.119Z,4.53
2019-03-27T18:23:47.568Z,5.17
2019-03-27T18:26:19.679Z,4.42
2019-03-27T18:28:52.122Z,4.17
2019-03-27T18:31:24.162Z,4.35
2019-03-27T18:33:56.438Z,4.33
2019-03-27T18:36:28.504Z,5.03
2019-03-27T18:39:00.873Z,3.85
2019-03-27T18:41:34.785Z,5.62
2019-03-27T18:44:06.920Z,5.58
2019-03-27T18:46:39.099Z,6.25
2019-03-27T18:49:12.155Z,5.12
2019-03-27T18:51:44.624Z,7.62
2019-03-27T18:54:16.779Z,12.13
2019-03-27T18:56:48.967Z,11.65
2019-03-27T18:59:20.914Z,5.70
2019-03-27T19:01:52.951Z,6.10
2019-03-27T19:04:25.357Z,6.08
2019-03-27T19:06:58.867Z,6.10
2019-03-27T19:12:02.011Z,5.75
2019-03-27T19:14:35.256Z,5.47
2019-03-27T19:17:07.583Z,6.67
2019-03-27T19:19:40.281Z,7.53
2019-03-27T19:22:12.578Z,7.35
2019-03-27T19:24:44.595Z,7.37
2019-03-27T19:27:16.711Z,5.62
2019-03-27T19:29:49.007Z,5.42
2019-03-27T19:32:21.161Z,5.60
2019-03-27T19:34:54.421Z,5.12
2019-03-27T21:40:48.734Z,4.60
2019-03-27T21:43:20.942Z,4.65
2019-03-27T21:45:53.336Z,4.60
2019-03-27T21:48:25.800Z,4.55
2019-03-27T21:50:57.838Z,4.80
2019-03-27T21:53:30.051Z,5.05
2019-03-27T21:56:01.899Z,4.97
2019-03-27T21:58:34.188Z,4.42
2019-03-27T22:01:06.952Z,5.85
2019-03-27T22:03:39.095Z,5.10
2019-03-27T22:06:11.370Z,4.85
2019-03-27T22:08:43.517Z,4.67
2019-03-27T22:11:15.649Z,4.30
2019-03-27T22:13:48.882Z,4.67
2019-03-27T22:16:20.978Z,4.75
2019-03-27T22:18:53.488Z,5.22
2019-03-27T22:21:26.995Z,4.80
2019-03-27T22:24:00.231Z,5.42
2019-03-27T22:26:32.581Z,4.67
2019-03-27T22:29:04.631Z,4.87
2019-03-27T22:31:36.965Z,5.28
2019-03-27T22:34:09.092Z,4.60
2019-03-27T23:26:57.670Z,6.03
2019-03-27T23:29:30.934Z,5.97
2019-03-27T23:32:03.307Z,6.12
2019-03-27T23:34:35.457Z,6.65
2019-03-27T23:37:08.044Z,6.17
